Time;durP1;ratioP1;P1;durP2;ratioP2;P2;SDS_P1;SDS_P2;PMS_P1;PMS_P2;Temp;Humidity;BMP_temperature;BMP_pressure;BME280_temperature;BME280_humidity;BME280_pressure;Samples;Min_cycle;Max_cycle;Signal;HPM_P1;HPM_P2
2021/06/10 00:00:13;;;;;;;2.60;2.40;;;27.40;48.70;;;;;;5052037;28;20470;-64
2021/06/10 00:02:38;;;;;;;2.80;2.50;;;27.40;48.80;;;;;;5052008;28;20086;-64
2021/06/10 00:05:08;;;;;;;2.90;2.38;;;27.40;48.80;;;;;;5051940;28;20033;-64
2021/06/10 00:07:34;;;;;;;2.80;2.47;;;27.40;48.80;;;;;;5046867;28;20036;-64
2021/06/10 00:10:00;;;;;;;2.90;2.60;;;27.40;48.80;;;;;;5047639;28;20033;-64
2021/06/10 00:12:26;;;;;;;3.15;2.47;;;27.40;48.80;;;;;;5045588;28;20033;-64
2021/06/10 00:14:51;;;;;;;2.67;2.40;;;27.40;48.80;;;;;;5048803;28;20033;-64
2021/06/10 00:17:17;;;;;;;3.22;2.42;;;27.40;48.80;;;;;;5048422;28;20033;-64
2021/06/10 00:19:43;;;;;;;3.00;2.50;;;27.40;48.90;;;;;;5050203;28;20036;-64
2021/06/10 00:22:09;;;;;;;2.95;2.47;;;27.30;48.80;;;;;;5047029;28;20025;-64
2021/06/10 00:24:35;;;;;;;2.60;2.40;;;27.40;48.90;;;;;;5065498;28;20025;-63
2021/06/10 00:27:01;;;;;;;2.88;2.47;;;27.30;48.80;;;;;;5052009;28;20033;-63
2021/06/10 00:29:26;;;;;;;2.80;2.22;;;27.40;48.90;;;;;;5059286;28;20484;-63
2021/06/10 00:31:52;;;;;;;2.90;2.60;;;27.30;48.80;;;;;;5044945;28;20082;-63
2021/06/10 00:34:18;;;;;;;2.85;2.38;;;27.30;48.80;;;;;;5049389;28;20566;-63
2021/06/10 00:36:43;;;;;;;2.78;2.40;;;27.30;48.90;;;;;;5052947;28;20472;-63
2021/06/10 00:39:09;;;;;;;2.70;2.40;;;27.30;48.90;;;;;;5051390;28;20029;-63
2021/06/10 00:41:36;;;;;;;2.90;2.50;;;27.30;48.90;;;;;;5051507;28;20032;-63
2021/06/10 00:44:05;;;;;;;2.72;2.40;;;27.30;48.90;;;;;;5054416;28;20021;-63
2021/06/10 00:46:30;;;;;;;2.92;2.45;;;27.30;48.90;;;;;;5062243;28;20040;-63
2021/06/10 00:48:56;;;;;;;3.00;2.67;;;27.30;48.90;;;;;;5052865;28;20045;-63
2021/06/10 00:51:22;;;;;;;2.92;2.53;;;27.30;48.90;;;;;;5049066;28;20039;-63
2021/06/10 00:53:48;;;;;;;3.47;2.50;;;27.20;48.90;;;;;;5067430;28;20054;-63
2021/06/10 00:56:14;;;;;;;3.00;2.40;;;27.30;48.90;;;;;;5059949;28;20390;-63
2021/06/10 00:58:40;;;;;;;2.58;2.28;;;27.30;48.90;;;;;;5065344;28;20044;-64
2021/06/10 01:01:07;;;;;;;2.50;2.25;;;27.20;48.90;;;;;;5063775;28;20040;-63
2021/06/10 01:03:34;;;;;;;2.30;2.00;;;27.20;48.90;;;;;;5049174;28;20039;-63
2021/06/10 01:06:09;;;;;;;2.83;2.40;;;27.20;48.90;;;;;;5049794;28;20375;-64
2021/06/10 01:08:44;;;;;;;2.80;2.50;;;27.20;48.90;;;;;;5061994;28;20028;-63
2021/06/10 01:11:20;;;;;;;3.08;2.50;;;27.20;48.90;;;;;;5049309;28;20139;-63
2021/06/10 01:14:04;;;;;;;2.80;2.50;;;27.20;48.90;;;;;;5053008;28;20029;-63
2021/06/10 01:16:32;;;;;;;2.78;2.42;;;27.20;48.90;;;;;;5058390;28;20876;-63
2021/06/10 01:19:02;;;;;;;3.72;2.50;;;27.20;48.90;;;;;;5051185;28;20486;-63
2021/06/10 01:21:28;;;;;;;2.63;2.38;;;27.10;48.80;;;;;;5049117;28;20570;-63
2021/06/10 01:24:22;;;;;;;2.83;2.40;;;27.20;49.00;;;;;;5057069;28;20071;-64
2021/06/10 01:27:35;;;;;;;2.80;2.30;;;27.20;49.00;;;;;;5058645;28;20021;-64
2021/06/10 01:30:13;;;;;;;2.63;2.38;;;27.20;49.00;;;;;;5053431;28;20036;-63
2021/06/10 01:32:45;;;;;;;3.22;2.53;;;27.10;48.90;;;;;;5048031;28;20056;-63
2021/06/10 01:35:13;;;;;;;2.70;2.20;;;27.10;48.90;;;;;;5049071;28;20107;-63
2021/06/10 01:37:40;;;;;;;2.63;2.30;;;27.10;48.90;;;;;;5062152;28;20028;-64
2021/06/10 01:40:07;;;;;;;3.20;2.40;;;27.10;48.90;;;;;;5063699;28;20036;-63
2021/06/10 01:42:36;;;;;;;2.60;2.30;;;27.10;48.90;;;;;;5065946;28;20586;-63
2021/06/10 01:45:01;;;;;;;2.60;2.40;;;27.00;48.90;;;;;;5051650;28;20472;-63
2021/06/10 01:47:27;;;;;;;3.00;2.55;;;27.10;49.00;;;;;;5047160;28;20035;-63
2021/06/10 01:49:56;;;;;;;2.72;2.30;;;27.10;48.90;;;;;;5049190;28;20043;-64
2021/06/10 01:52:24;;;;;;;3.10;2.45;;;27.10;49.00;;;;;;5048413;28;20114;-64
2021/06/10 01:54:51;;;;;;;2.93;2.50;;;27.10;49.00;;;;;;5063689;28;20128;-64
2021/06/10 01:57:18;;;;;;;2.80;2.17;;;27.10;49.00;;;;;;5067078;28;20827;-64
2021/06/10 01:59:44;;;;;;;2.90;2.45;;;27.00;48.90;;;;;;5057656;28;20013;-64
2021/06/10 02:02:10;;;;;;;2.40;2.20;;;27.00;48.90;;;;;;5052464;28;20566;-64
2021/06/10 02:04:36;;;;;;;2.67;2.30;;;27.00;48.90;;;;;;5056347;28;20050;-64
2021/06/10 02:07:03;;;;;;;2.80;2.50;;;27.00;48.90;;;;;;5050955;28;20440;-64
2021/06/10 02:09:29;;;;;;;2.50;2.30;;;27.00;49.00;;;;;;5053067;28;20466;-63
2021/06/10 02:11:56;;;;;;;2.30;2.10;;;27.00;48.90;;;;;;5052256;28;20460;-64
2021/06/10 02:14:23;;;;;;;2.40;2.20;;;27.00;48.90;;;;;;5068518;28;20032;-64
2021/06/10 02:16:50;;;;;;;2.60;2.30;;;27.00;49.00;;;;;;5050723;28;20409;-64
2021/06/10 02:19:16;;;;;;;2.70;2.40;;;27.00;49.00;;;;;;5065092;28;20060;-64
2021/06/10 02:21:42;;;;;;;2.60;2.30;;;26.90;48.90;;;;;;5047031;28;20167;-64
2021/06/10 02:24:11;;;;;;;2.63;2.20;;;27.00;49.00;;;;;;5048116;28;20031;-64
2021/06/10 02:26:38;;;;;;;2.92;2.63;;;27.00;49.50;;;;;;5052894;28;20040;-64
2021/06/10 02:29:05;;;;;;;2.75;2.40;;;26.90;48.90;;;;;;5048614;28;20071;-64
2021/06/10 02:31:32;;;;;;;3.03;2.30;;;26.90;48.90;;;;;;5064204;28;20052;-63
2021/06/10 02:33:57;;;;;;;2.50;2.20;;;26.90;48.90;;;;;;5066574;28;20468;-63
2021/06/10 02:36:23;;;;;;;2.50;2.22;;;26.90;49.00;;;;;;5047986;28;20044;-63
2021/06/10 02:39:17;;;;;;;2.47;2.28;;;26.90;49.00;;;;;;5067030;28;20125;-63
2021/06/10 02:41:50;;;;;;;2.97;2.40;;;26.90;49.00;;;;;;5064147;28;20066;-63
2021/06/10 02:44:16;;;;;;;2.65;2.25;;;26.90;49.00;;;;;;5068211;28;20124;-63
2021/06/10 02:46:42;;;;;;;2.70;2.28;;;26.90;49.00;;;;;;5059216;28;20466;-63
2021/06/10 02:49:09;;;;;;;3.05;2.30;;;26.90;49.00;;;;;;5049196;28;20543;-63
2021/06/10 02:51:36;;;;;;;2.30;2.08;;;26.90;49.00;;;;;;5052701;28;20105;-63
2021/06/10 02:54:06;;;;;;;2.53;2.30;;;26.90;49.00;;;;;;5046319;28;20025;-63
2021/06/10 02:56:35;;;;;;;2.67;2.28;;;26.90;49.00;;;;;;5054670;28;20128;-63
2021/06/10 02:59:02;;;;;;;2.95;2.40;;;26.90;49.00;;;;;;5047316;28;20429;-63
2021/06/10 03:01:31;;;;;;;3.08;2.30;;;26.80;49.00;;;;;;5063450;28;20040;-63
2021/06/10 03:03:57;;;;;;;2.40;2.20;;;26.80;49.00;;;;;;5055662;28;20481;-63
2021/06/10 03:06:24;;;;;;;2.55;2.30;;;26.80;49.00;;;;;;5062554;28;20032;-63
2021/06/10 03:08:51;;;;;;;3.10;2.40;;;26.80;49.00;;;;;;5057071;28;20102;-63
2021/06/10 03:11:18;;;;;;;3.10;2.35;;;26.80;49.00;;;;;;5047503;28;20082;-63
2021/06/10 03:13:44;;;;;;;2.88;2.40;;;26.80;49.00;;;;;;5050625;28;20108;-63
2021/06/10 03:16:11;;;;;;;2.60;2.20;;;26.80;49.00;;;;;;5047174;28;20033;-63
2021/06/10 03:18:38;;;;;;;2.45;2.10;;;26.80;49.00;;;;;;5059052;28;20029;-63
2021/06/10 03:21:04;;;;;;;2.63;2.38;;;26.80;49.50;;;;;;5062783;28;20032;-63
2021/06/10 03:23:31;;;;;;;2.80;2.20;;;26.80;49.00;;;;;;5063320;28;20098;-63
2021/06/10 03:26:00;;;;;;;2.83;2.53;;;26.80;49.00;;;;;;5055864;28;20108;-63
2021/06/10 03:28:27;;;;;;;2.58;2.28;;;26.80;49.50;;;;;;5054352;28;20081;-63
2021/06/10 03:30:53;;;;;;;2.83;2.53;;;26.80;49.00;;;;;;5059772;28;20036;-63
2021/06/10 03:33:19;;;;;;;2.80;2.30;;;26.80;49.00;;;;;;5051513;28;20060;-64
2021/06/10 03:35:46;;;;;;;2.92;2.40;;;26.80;49.00;;;;;;5055321;28;20095;-63
2021/06/10 03:38:16;;;;;;;3.15;2.30;;;26.80;49.60;;;;;;5056044;28;20095;-63
2021/06/10 03:40:47;;;;;;;2.40;2.10;;;26.70;49.00;;;;;;5058990;28;20025;-64
2021/06/10 03:43:14;;;;;;;2.30;2.10;;;26.70;49.00;;;;;;5045837;28;20151;-64
2021/06/10 03:45:40;;;;;;;2.20;2.00;;;26.70;49.00;;;;;;5047237;28;20367;-63
2021/06/10 03:48:08;;;;;;;2.53;2.20;;;26.70;49.00;;;;;;5057713;28;20042;-63
2021/06/10 03:50:36;;;;;;;2.30;2.03;;;26.70;49.10;;;;;;5062109;28;20371;-63
2021/06/10 03:53:03;;;;;;;2.50;2.15;;;26.70;49.00;;;;;;5055317;28;20020;-63
2021/06/10 03:55:29;;;;;;;2.78;2.20;;;26.70;49.00;;;;;;5064421;28;20016;-63
2021/06/10 03:57:54;;;;;;;2.85;2.30;;;26.70;49.00;;;;;;5061147;28;20101;-64
2021/06/10 04:00:20;;;;;;;2.40;2.20;;;26.70;49.10;;;;;;5061425;28;20021;-63
2021/06/10 04:02:46;;;;;;;2.92;2.20;;;26.70;49.10;;;;;;5047300;28;20428;-63
2021/06/10 04:05:11;;;;;;;2.40;2.10;;;26.70;49.10;;;;;;5045594;28;20515;-63
2021/06/10 04:07:37;;;;;;;2.47;2.00;;;26.60;49.00;;;;;;5049993;28;20028;-63
2021/06/10 04:10:06;;;;;;;2.30;2.03;;;26.60;49.00;;;;;;5061474;28;20526;-63
2021/06/10 04:12:32;;;;;;;2.50;2.10;;;26.60;49.00;;;;;;5052478;28;20032;-63
2021/06/10 04:14:58;;;;;;;2.60;2.20;;;26.60;49.00;;;;;;5059366;28;20052;-63
2021/06/10 04:17:23;;;;;;;2.30;2.10;;;26.60;49.00;;;;;;5050741;28;20462;-62
2021/06/10 04:19:49;;;;;;;2.35;2.00;;;26.60;49.00;;;;;;5064734;28;20424;-63
2021/06/10 04:22:15;;;;;;;2.42;2.10;;;26.60;49.00;;;;;;5052948;28;20067;-62
2021/06/10 04:24:42;;;;;;;2.38;2.15;;;26.60;49.10;;;;;;5056705;28;20036;-62
2021/06/10 04:27:08;;;;;;;2.25;1.90;;;26.60;49.00;;;;;;5048884;28;20081;-62
2021/06/10 04:29:34;;;;;;;2.25;1.85;;;26.60;49.10;;;;;;5062698;28;20131;-62
2021/06/10 04:32:01;;;;;;;2.42;2.10;;;26.60;49.00;;;;;;5064500;28;20050;-62
2021/06/10 04:34:27;;;;;;;2.20;1.90;;;26.60;49.00;;;;;;5065814;28;20089;-62
2021/06/10 04:36:53;;;;;;;2.35;2.08;;;26.60;49.00;;;;;;5061084;28;20029;-63
2021/06/10 04:39:18;;;;;;;2.47;1.92;;;26.60;49.00;;;;;;5067363;28;20025;-62
2021/06/10 04:41:44;;;;;;;2.85;2.00;;;26.60;49.00;;;;;;5049541;28;20029;-62
2021/06/10 04:44:10;;;;;;;3.22;1.90;;;26.60;49.00;;;;;;5056490;28;20032;-62
2021/06/10 04:46:35;;;;;;;2.40;2.10;;;26.60;49.00;;;;;;5048947;28;20087;-62
2021/06/10 04:49:03;;;;;;;2.33;1.98;;;26.60;49.00;;;;;;5046491;28;20463;-62
2021/06/10 04:51:28;;;;;;;2.30;2.00;;;26.60;49.00;;;;;;5059183;28;20039;-62
2021/06/10 04:53:54;;;;;;;2.20;1.90;;;26.60;49.00;;;;;;5048041;28;20341;-62
2021/06/10 04:56:23;;;;;;;2.70;2.00;;;26.60;49.00;;;;;;5058637;28;20116;-63
2021/06/10 04:58:49;;;;;;;3.05;2.10;;;26.60;49.00;;;;;;5056813;28;20466;-63
2021/06/10 05:01:16;;;;;;;2.25;2.00;;;26.60;49.00;;;;;;5054631;28;20033;-63
2021/06/10 05:03:41;;;;;;;2.50;1.98;;;26.50;49.00;;;;;;5056135;28;20021;-63
2021/06/10 05:06:09;;;;;;;2.65;2.00;;;26.50;48.40;;;;;;5049693;28;20040;-63
2021/06/10 05:08:35;;;;;;;2.38;2.00;;;26.50;48.90;;;;;;5051933;28;20120;-62
2021/06/10 05:11:01;;;;;;;2.80;2.00;;;26.50;48.90;;;;;;5058451;28;20107;-63
2021/06/10 05:13:27;;;;;;;2.40;2.10;;;26.50;48.90;;;;;;5048410;28;20075;-63
2021/06/10 05:15:53;;;;;;;2.45;1.98;;;26.50;48.90;;;;;;5052286;28;20374;-63
2021/06/10 05:18:18;;;;;;;2.80;2.13;;;26.50;49.00;;;;;;5049950;28;20032;-62
2021/06/10 05:20:45;;;;;;;2.47;2.00;;;26.50;48.90;;;;;;5057639;28;20109;-63
2021/06/10 05:23:11;;;;;;;2.20;1.88;;;26.50;48.90;;;;;;5051697;28;20033;-63
2021/06/10 05:25:36;;;;;;;2.53;1.90;;;26.50;49.00;;;;;;5061744;28;20041;-63
2021/06/10 05:28:02;;;;;;;2.67;2.03;;;26.50;49.00;;;;;;5066750;28;20115;-62
2021/06/10 05:30:28;;;;;;;2.70;2.00;;;26.50;49.00;;;;;;5056323;28;20044;-62
2021/06/10 05:32:54;;;;;;;2.63;2.40;;;26.50;49.30;;;;;;5064336;28;20033;-62
2021/06/10 05:35:20;;;;;;;3.00;2.30;;;26.50;49.00;;;;;;5063421;28;20040;-62
2021/06/10 05:37:45;;;;;;;3.33;2.10;;;26.50;49.20;;;;;;5048712;28;20475;-62
2021/06/10 05:40:12;;;;;;;2.97;2.47;;;26.50;48.90;;;;;;5067454;28;20033;-63
2021/06/10 05:42:38;;;;;;;5.18;2.65;;;26.50;48.60;;;;;;5076106;28;20031;-63
2021/06/10 05:45:05;;;;;;;3.50;2.63;;;26.50;48.30;;;;;;5055556;28;20032;-62
2021/06/10 05:47:31;;;;;;;3.78;2.65;;;26.50;48.10;;;;;;5062198;28;20101;-63
2021/06/10 05:49:57;;;;;;;3.60;2.40;;;26.50;48.00;;;;;;5055212;28;20124;-63
2021/06/10 05:52:24;;;;;;;4.88;3.03;;;26.50;47.80;;;;;;5048359;28;20112;-62
2021/06/10 05:54:50;;;;;;;3.47;2.85;;;26.50;47.70;;;;;;5058544;28;20029;-62
2021/06/10 05:57:16;;;;;;;4.47;2.80;;;26.50;47.50;;;;;;5056198;28;20033;-62
2021/06/10 05:59:43;;;;;;;3.92;3.15;;;26.50;47.50;;;;;;5058887;28;20324;-62
2021/06/10 06:02:09;;;;;;;3.78;2.88;;;26.50;47.40;;;;;;5055410;28;20029;-62
2021/06/10 06:04:34;;;;;;;4.13;2.72;;;26.50;47.40;;;;;;5060681;28;20025;-62
2021/06/10 06:07:00;;;;;;;3.50;2.90;;;26.60;47.40;;;;;;5058554;28;20033;-62
2021/06/10 06:09:25;;;;;;;3.88;3.42;;;26.60;47.40;;;;;;5049072;28;20044;-62
2021/06/10 06:11:52;;;;;;;4.03;3.17;;;26.60;47.40;;;;;;5050145;28;20146;-62
2021/06/10 06:14:24;;;;;;;4.32;3.20;;;26.60;47.40;;;;;;5049645;28;20100;-62
2021/06/10 06:16:50;;;;;;;4.97;3.10;;;26.60;47.80;;;;;;5049998;28;20064;-62
2021/06/10 06:19:16;;;;;;;3.90;3.28;;;26.60;47.20;;;;;;5057146;28;20138;-61
2021/06/10 06:21:42;;;;;;;4.28;3.30;;;26.60;47.20;;;;;;5054703;28;20590;-62
2021/06/10 06:24:08;;;;;;;3.83;3.05;;;26.60;47.20;;;;;;5057846;28;20086;-62
2021/06/10 06:26:34;;;;;;;4.68;3.13;;;26.60;47.10;;;;;;5051114;28;20482;-62
2021/06/10 06:29:02;;;;;;;3.67;3.03;;;26.60;47.20;;;;;;5049636;28;20033;-62
2021/06/10 06:31:29;;;;;;;4.65;3.50;;;26.60;47.10;;;;;;5051313;28;20534;-62
2021/06/10 06:33:56;;;;;;;5.32;3.30;;;26.60;47.20;;;;;;5065664;28;20059;-62
2021/06/10 06:36:21;;;;;;;4.82;3.20;;;26.60;47.10;;;;;;5066953;28;20466;-61
2021/06/10 06:38:48;;;;;;;3.80;3.05;;;26.60;47.10;;;;;;5055233;28;20029;-62
2021/06/10 06:41:14;;;;;;;4.53;3.25;;;26.60;47.10;;;;;;5048696;28;20021;-61
2021/06/10 06:43:40;;;;;;;3.70;3.13;;;26.60;47.10;;;;;;5050619;28;20040;-61
2021/06/10 06:46:09;;;;;;;4.03;3.25;;;26.60;47.20;;;;;;5050413;28;20094;-62
2021/06/10 06:48:36;;;;;;;3.88;3.35;;;26.60;47.30;;;;;;5052039;28;20028;-62
2021/06/10 06:51:02;;;;;;;4.30;3.33;;;26.70;47.30;;;;;;5052415;28;20115;-61
2021/06/10 06:53:31;;;;;;;4.13;3.03;;;26.70;47.30;;;;;;5054571;28;20032;-62
2021/06/10 06:55:57;;;;;;;3.40;3.00;;;26.70;47.40;;;;;;5055953;28;20021;-62
2021/06/10 06:58:23;;;;;;;3.33;2.63;;;26.70;47.40;;;;;;5051452;28;20028;-62
2021/06/10 07:00:49;;;;;;;3.80;3.08;;;26.70;47.40;;;;;;5059221;28;20055;-62
2021/06/10 07:03:15;;;;;;;4.25;3.58;;;26.70;47.50;;;;;;5063434;28;20042;-62
2021/06/10 07:05:40;;;;;;;3.80;3.03;;;26.70;47.50;;;;;;5066764;28;20028;-62
2021/06/10 07:08:06;;;;;;;3.78;3.22;;;26.70;47.20;;;;;;5062215;28;20086;-62
2021/06/10 07:10:32;;;;;;;3.78;3.30;;;26.70;47.20;;;;;;5059268;28;20037;-62
2021/06/10 07:12:57;;;;;;;3.80;3.17;;;26.70;47.20;;;;;;5062000;28;20048;-62
2021/06/10 07:15:23;;;;;;;4.13;3.40;;;26.70;47.40;;;;;;5052261;28;20511;-62
2021/06/10 07:17:48;;;;;;;4.40;3.20;;;26.70;47.30;;;;;;5061325;28;20040;-61
2021/06/10 07:20:14;;;;;;;4.22;3.63;;;26.70;47.20;;;;;;5053626;28;20042;-62
2021/06/10 07:22:41;;;;;;;3.90;3.40;;;26.70;47.20;;;;;;5065152;28;20713;-62
2021/06/10 07:25:08;;;;;;;3.90;3.50;;;26.80;47.20;;;;;;5064908;28;20032;-62
2021/06/10 07:27:34;;;;;;;3.97;3.33;;;26.80;47.30;;;;;;5059162;28;20065;-61
2021/06/10 07:30:00;;;;;;;3.80;3.38;;;26.80;47.20;;;;;;5054174;28;20041;-62
2021/06/10 07:32:27;;;;;;;5.35;3.72;;;26.80;47.30;;;;;;5054240;28;20041;-62
2021/06/10 07:34:52;;;;;;;4.00;3.60;;;26.80;47.70;;;;;;5061140;28;20032;-61
2021/06/10 07:37:18;;;;;;;4.38;3.30;;;26.70;47.40;;;;;;5052401;28;20033;-62
2021/06/10 07:39:44;;;;;;;3.65;3.22;;;26.80;47.50;;;;;;5056874;28;20134;-62
2021/06/10 07:42:10;;;;;;;4.70;3.53;;;26.80;47.30;;;;;;5057921;28;20092;-63
2021/06/10 07:44:35;;;;;;;4.05;3.65;;;26.80;47.40;;;;;;5047864;28;20851;-62
2021/06/10 07:47:01;;;;;;;3.90;3.33;;;26.80;47.50;;;;;;5052812;28;20727;-62
2021/06/10 07:49:27;;;;;;;3.83;3.42;;;26.80;47.40;;;;;;5067521;28;20128;-62
2021/06/10 07:51:52;;;;;;;4.95;4.43;;;26.80;47.70;;;;;;5064069;28;20036;-62
2021/06/10 07:54:18;;;;;;;4.10;3.70;;;26.80;48.50;;;;;;5049707;28;20481;-62
2021/06/10 07:56:44;;;;;;;4.93;4.43;;;26.80;47.70;;;;;;5059736;28;20134;-63
2021/06/10 07:59:10;;;;;;;5.28;4.78;;;26.80;47.90;;;;;;5054407;28;20646;-62
2021/06/10 08:01:37;;;;;;;7.28;5.43;;;26.80;48.80;;;;;;5056583;28;20052;-62
2021/06/10 08:04:03;;;;;;;6.57;5.22;;;26.80;49.60;;;;;;5050766;28;20033;-61
2021/06/10 08:06:29;;;;;;;4.47;4.03;;;26.80;49.50;;;;;;5064309;28;20380;-62
2021/06/10 08:08:55;;;;;;;3.60;3.30;;;26.80;49.00;;;;;;5056626;28;20040;-62
2021/06/10 08:11:20;;;;;;;4.57;3.80;;;26.90;48.40;;;;;;5048760;28;20033;-62
2021/06/10 08:13:46;;;;;;;3.83;3.45;;;26.90;48.20;;;;;;5047607;28;20124;-62
2021/06/10 08:16:12;;;;;;;4.18;3.78;;;26.90;48.00;;;;;;5066288;28;20751;-62
2021/06/10 08:18:37;;;;;;;4.00;3.60;;;26.90;48.10;;;;;;5062993;28;20379;-62
2021/06/10 08:21:03;;;;;;;4.25;3.85;;;26.90;48.00;;;;;;5053326;28;20033;-62
2021/06/10 08:23:30;;;;;;;4.70;4.20;;;26.90;48.00;;;;;;5056298;28;20024;-62
2021/06/10 08:25:59;;;;;;;3.78;3.10;;;26.90;47.80;;;;;;5054435;28;20147;-63
2021/06/10 08:28:27;;;;;;;3.63;3.30;;;26.90;47.80;;;;;;5062716;28;20017;-62
2021/06/10 08:30:53;;;;;;;4.07;3.47;;;26.90;47.80;;;;;;5058140;28;20028;-62
2021/06/10 08:33:18;;;;;;;3.40;3.10;;;26.90;47.60;;;;;;5056950;28;20016;-62
2021/06/10 08:35:44;;;;;;;3.88;3.47;;;27.00;47.70;;;;;;5055464;28;20036;-62
2021/06/10 08:38:10;;;;;;;3.65;3.13;;;27.00;47.60;;;;;;5065708;28;20035;-62
2021/06/10 08:40:38;;;;;;;3.67;3.35;;;27.00;47.60;;;;;;5053398;28;20037;-61
2021/06/10 08:43:08;;;;;;;3.83;3.28;;;27.00;47.50;;;;;;5054491;28;20475;-62
2021/06/10 08:45:34;;;;;;;3.95;3.42;;;27.00;47.50;;;;;;5057041;28;20048;-61
2021/06/10 08:48:00;;;;;;;3.97;3.50;;;27.00;47.70;;;;;;5059453;28;20031;-62
2021/06/10 08:50:27;;;;;;;3.50;3.20;;;27.00;47.30;;;;;;5054942;28;20432;-62
2021/06/10 08:52:58;;;;;;;3.70;3.30;;;27.10;47.40;;;;;;5052205;28;20096;-62
2021/06/10 08:55:25;;;;;;;3.65;3.17;;;27.10;47.40;;;;;;5052867;28;20028;-62
2021/06/10 08:57:51;;;;;;;3.38;3.03;;;27.10;47.20;;;;;;5060366;28;20175;-61
2021/06/10 09:00:20;;;;;;;3.60;3.20;;;27.10;47.30;;;;;;5069016;28;20036;-62
2021/06/10 09:02:53;;;;;;;3.50;3.00;;;27.10;47.30;;;;;;5059516;28;20033;-62
2021/06/10 09:05:21;;;;;;;3.78;3.30;;;27.10;47.40;;;;;;5051610;28;20028;-63
2021/06/10 09:07:58;;;;;;;3.97;2.92;;;27.10;47.40;;;;;;5064770;28;20605;-62
2021/06/10 09:10:29;;;;;;;3.30;3.00;;;27.20;47.20;;;;;;5051554;28;20471;-62
2021/06/10 09:12:56;;;;;;;3.30;3.00;;;27.20;47.10;;;;;;5058678;28;20108;-63
2021/06/10 09:15:25;;;;;;;3.10;2.78;;;27.20;47.20;;;;;;5061951;28;20032;-62
2021/06/10 09:17:54;;;;;;;2.90;2.60;;;27.20;47.20;;;;;;5065980;28;20082;-62
2021/06/10 09:20:20;;;;;;;3.28;2.97;;;27.20;47.70;;;;;;5065705;28;20037;-62
2021/06/10 09:22:47;;;;;;;3.22;2.80;;;27.20;47.10;;;;;;5055821;28;20426;-62
2021/06/10 09:25:17;;;;;;;4.13;3.05;;;27.30;47.30;;;;;;5058257;28;20028;-63
2021/06/10 09:27:53;;;;;;;3.13;2.70;;;27.30;47.30;;;;;;5064443;28;20066;-62
2021/06/10 09:30:32;;;;;;;4.25;2.70;;;27.30;47.10;;;;;;5067111;28;20036;-63
2021/06/10 09:33:00;;;;;;;3.35;2.80;;;27.30;47.00;;;;;;5060630;28;20596;-62
2021/06/10 09:35:28;;;;;;;3.20;2.90;;;27.40;47.10;;;;;;5053955;28;20025;-62
2021/06/10 09:37:58;;;;;;;3.22;2.83;;;27.40;47.00;;;;;;5051271;28;20037;-63
2021/06/10 09:40:24;;;;;;;3.35;3.05;;;27.40;47.10;;;;;;5050084;28;20032;-62
2021/06/10 09:42:50;;;;;;;3.92;2.90;;;27.40;47.30;;;;;;5057636;28;20021;-62
2021/06/10 09:45:19;;;;;;;3.67;2.85;;;27.40;47.20;;;;;;5049933;28;20091;-62
2021/06/10 09:47:52;;;;;;;3.30;2.90;;;27.40;47.10;;;;;;5055115;28;20089;-62
2021/06/10 09:50:24;;;;;;;3.42;2.90;;;27.40;47.10;;;;;;5055808;28;20366;-62
2021/06/10 09:53:12;;;;;;;3.58;2.70;;;27.40;46.90;;;;;;5050224;28;20541;-62
2021/06/10 09:55:46;;;;;;;3.13;2.78;;;27.30;46.80;;;;;;5063154;28;20047;-62
2021/06/10 09:58:14;;;;;;;3.60;2.75;;;27.40;46.90;;;;;;5053005;28;20383;-62
2021/06/10 10:00:47;;;;;;;4.15;3.05;;;27.40;46.80;;;;;;5060915;28;20167;-63
2021/06/10 10:03:25;;;;;;;3.30;2.95;;;27.40;46.80;;;;;;5057893;28;20083;-63
2021/06/10 10:06:00;;;;;;;3.90;2.90;;;27.40;46.60;;;;;;5055620;28;20147;-62
2021/06/10 10:08:28;;;;;;;3.13;2.75;;;27.40;46.70;;;;;;5047074;28;20104;-62
2021/06/10 10:10:57;;;;;;;2.95;2.47;;;27.40;46.60;;;;;;5054007;28;20099;-62
2021/06/10 10:13:27;;;;;;;3.03;2.60;;;27.40;46.50;;;;;;5053145;28;20415;-62
2021/06/10 10:15:54;;;;;;;2.97;2.60;;;27.50;46.50;;;;;;5049711;28;20031;-61
2021/06/10 10:18:21;;;;;;;3.20;2.90;;;27.50;46.00;;;;;;5058225;28;20475;-62
2021/06/10 10:20:47;;;;;;;3.05;2.47;;;27.50;46.30;;;;;;5061820;28;20478;-62
2021/06/10 10:23:13;;;;;;;3.22;2.80;;;27.50;46.30;;;;;;5062435;28;20039;-63
2021/06/10 10:25:39;;;;;;;2.90;2.50;;;27.50;46.50;;;;;;5055770;28;20027;-62
2021/06/10 10:28:13;;;;;;;6.50;2.80;;;27.50;46.30;;;;;;5049956;28;20479;-60
2021/06/10 10:30:43;;;;;;;2.60;2.10;;;27.60;46.40;;;;;;5054780;28;20137;-60
2021/06/10 10:33:20;;;;;;;3.13;2.50;;;27.60;45.50;;;;;;5051057;28;20036;-60
2021/06/10 10:35:55;;;;;;;2.60;2.40;;;27.60;45.20;;;;;;5061593;28;20028;-60
2021/06/10 10:38:39;;;;;;;3.20;2.80;;;27.60;45.20;;;;;;5054644;28;20362;-61
2021/06/10 10:41:14;;;;;;;3.22;2.78;;;27.60;45.30;;;;;;5068495;28;20012;-59
2021/06/10 10:43:40;;;;;;;3.10;2.80;;;27.70;45.50;;;;;;5065422;28;20459;-59
2021/06/10 10:46:06;;;;;;;3.42;2.60;;;27.70;45.60;;;;;;5060751;28;20021;-59
2021/06/10 10:48:34;;;;;;;3.45;3.15;;;27.70;45.70;;;;;;5062159;28;20039;-59
2021/06/10 10:51:00;;;;;;;3.38;2.88;;;27.70;45.60;;;;;;5057917;28;20120;-61
2021/06/10 10:53:27;;;;;;;4.07;3.03;;;27.80;45.80;;;;;;5045617;28;20419;-61
2021/06/10 10:56:18;;;;;;;4.10;2.90;;;27.80;45.70;;;;;;5058323;28;20081;-62
2021/06/10 10:59:17;;;;;;;3.33;2.70;;;27.80;45.80;;;;;;5054411;28;20045;-60
2021/06/10 11:02:01;;;;;;;3.20;2.90;;;27.80;46.00;;;;;;5058021;28;20592;-61
2021/06/10 11:04:49;;;;;;;3.28;2.80;;;27.90;46.10;;;;;;5055575;28;20486;-61
2021/06/10 11:07:33;;;;;;;3.00;2.70;;;27.90;46.10;;;;;;5055549;28;20047;-61
2021/06/10 11:09:59;;;;;;;3.10;2.55;;;27.90;46.00;;;;;;5055944;28;20225;-62
2021/06/10 11:12:43;;;;;;;4.28;2.80;;;27.90;46.00;;;;;;5053172;28;20079;-60
2021/06/10 11:15:38;;;;;;;3.28;2.70;;;28.00;46.10;;;;;;5053936;28;20035;-59
2021/06/10 11:18:07;;;;;;;3.15;2.60;;;28.00;46.20;;;;;;5048583;28;20085;-60
2021/06/10 11:20:41;;;;;;;3.92;2.88;;;28.00;46.10;;;;;;5060988;28;20037;-57
2021/06/10 11:23:10;;;;;;;4.65;2.97;;;28.00;46.10;;;;;;5061898;28;20047;-60
2021/06/10 11:25:44;;;;;;;2.65;2.35;;;28.00;46.40;;;;;;5052421;28;20103;-61
2021/06/10 11:28:17;;;;;;;3.00;2.70;;;28.00;46.70;;;;;;5048613;28;20116;-62
2021/06/10 11:30:47;;;;;;;3.17;2.55;;;28.00;46.80;;;;;;5060749;28;20112;-59
2021/06/10 11:33:25;;;;;;;3.20;2.78;;;28.10;46.70;;;;;;5050519;28;20019;-59
2021/06/10 11:35:58;;;;;;;4.63;2.90;;;28.10;46.70;;;;;;5055170;28;20107;-59
2021/06/10 11:38:30;;;;;;;3.20;2.70;;;28.10;46.60;;;;;;5052474;28;20035;-59
2021/06/10 11:41:00;;;;;;;3.50;2.83;;;28.10;46.60;;;;;;5055805;28;20036;-59
2021/06/10 11:43:28;;;;;;;3.20;2.90;;;28.10;46.60;;;;;;5062302;28;20024;-59
2021/06/10 11:46:02;;;;;;;3.60;2.78;;;28.20;46.30;;;;;;5060488;28;20025;-59
2021/06/10 11:48:36;;;;;;;3.47;2.58;;;28.20;46.20;;;;;;5055511;28;20032;-59
2021/06/10 11:51:03;;;;;;;2.70;2.40;;;28.30;46.10;;;;;;5066581;28;20142;-59
2021/06/10 11:53:30;;;;;;;4.00;2.78;;;28.30;46.50;;;;;;5064376;28;20170;-59
2021/06/10 11:55:58;;;;;;;3.33;2.50;;;28.30;46.40;;;;;;5055787;28;20028;-59
2021/06/10 11:58:31;;;;;;;3.50;2.97;;;28.30;46.00;;;;;;5051927;28;20086;-60
2021/06/10 12:01:04;;;;;;;3.05;2.50;;;28.30;45.90;;;;;;5049494;28;20033;-61
2021/06/10 12:03:34;;;;;;;3.00;2.70;;;28.30;45.70;;;;;;5044821;28;20025;-59
2021/06/10 12:06:00;;;;;;;3.40;2.90;;;28.40;45.40;;;;;;5053717;28;20108;-61
2021/06/10 12:08:27;;;;;;;3.63;2.80;;;28.40;45.30;;;;;;5060792;28;20499;-59
2021/06/10 12:10:59;;;;;;;3.83;2.53;;;28.40;45.20;;;;;;5044898;28;20058;-60
2021/06/10 12:13:50;;;;;;;2.97;2.42;;;28.40;45.20;;;;;;5050862;28;20029;-60
2021/06/10 12:16:19;;;;;;;3.20;2.67;;;28.40;45.20;;;;;;5049273;28;20031;-61
2021/06/10 12:18:49;;;;;;;3.30;2.50;;;28.40;45.10;;;;;;5064128;28;20029;-60
2021/06/10 12:21:17;;;;;;;3.00;2.40;;;28.40;45.00;;;;;;5047336;28;20029;-60
2021/06/10 12:23:48;;;;;;;2.80;2.50;;;28.40;44.40;;;;;;5049498;28;20411;-59
2021/06/10 12:26:16;;;;;;;2.67;2.35;;;28.50;45.20;;;;;;5047687;28;20491;-60
2021/06/10 12:28:47;;;;;;;2.80;2.47;;;28.50;45.20;;;;;;5053927;28;20085;-59
2021/06/10 12:31:17;;;;;;;3.38;2.70;;;28.50;45.40;;;;;;5051195;28;20544;-61
2021/06/10 12:33:51;;;;;;;2.70;2.40;;;28.50;45.70;;;;;;5057278;28;20167;-61
2021/06/10 12:36:33;;;;;;;2.92;2.55;;;28.60;45.80;;;;;;5053978;28;20032;-61
2021/06/10 12:39:06;;;;;;;2.88;2.50;;;28.60;46.00;;;;;;5069513;28;20077;-60
2021/06/10 12:41:41;;;;;;;3.15;2.50;;;28.60;45.90;;;;;;5069976;28;20490;-62
2021/06/10 12:44:07;;;;;;;2.40;2.13;;;28.60;46.00;;;;;;5068292;28;20498;-63
2021/06/10 12:46:51;;;;;;;2.50;2.17;;;28.60;45.70;;;;;;5061822;28;20021;-61
2021/06/10 12:49:40;;;;;;;2.85;2.33;;;28.70;45.70;;;;;;5056792;28;20144;-60
2021/06/10 12:52:13;;;;;;;3.03;2.40;;;28.70;46.10;;;;;;5053447;28;20060;-60
2021/06/10 12:54:42;;;;;;;2.78;2.30;;;28.70;46.00;;;;;;5062735;28;20387;-59